Login to view Products
 
Tuesday, July 23, 2019 (12:21 UTC)
Dubai International Airport
Last Updated: 23-Jul-2019 (12:20Z)
Wind Dir/Speed: N at 10 kt
Temperature: 38.6°C
Rel. Humidity: 46 %
Pressure: 994.9 hPa
Visibility: 8000 m
  • METAR OMDB 231200Z 36010KT 8000 NSC 39/26 Q0995 NOSIG
  • TAF OMDB 231100Z 2312/2418 34012KT 6000 NSC BECMG 2315/2317 07007KT BECMG 2400/2402 15010KT BECMG 2407/2409 32012KT BECMG 2415/2417 07005KT=
D:\Input Parser\Destinations\Final\11\OMDBL1218110057852100.txt
1